Hovedside
METAR-TAF:

METAR-TAF

Lufthavner :

Fort-de-France, Martinique

breddegrad: 14-36N, lengdegrad: 061-00W, høyde over havet: 5 m

Gjeldene værobservasjon

Denne rapporten ble laget for 16 minutter siden, klokken 08:00 UTC
Vind 4 kt fra Øst
Temperatur 25°C
Luftfuktighet 83%
Trykk 1010 hPa
Sikt 10 km eller mer
Få skyer i en høyde av 2800 ft
Brutte skyer i en høyde av 22000 ft

METAR: TFFF 190800Z AUTO 08004KT 9999 FEW028 BKN220 25/22 Q1010 NOSIG

Tid: 04:16 (08:16 UTC)

Varsel

Denne rapporten ble laget for 3 timer og 16 minutter siden, klokken 05:00 UTC
Varsel gyldig fra 19. klokken 06 UTC til 20. klokken 06 UTC
Vind 8 kt fra Øst
Sikt 10 km eller mer
Spredte skyer i en høyde av 2500 ft
Sannsynlighet 30% :
Midlertidig
fra 19. klokken 18 UTC til 19. klokken 24 UTC
Sikt: 4000 m
Spredte skyer i en høyde av 1800 ft, Tårnskyer (cumulus).
regnbyger

TAF: TFFF 190500Z 1906/2006 10008KT 9999 SCT025 PROB30 TEMPO 1918/1924 4000 SHRA SCT018TCU

Værobservasjoner og værvarsel for over 4000 flyplasser (METAR- og TAF-rapporter).

Tilgjengelige stasjoner er representert av de røde og gule prikkene på kartet.

Hold musepekeren over prikken for å se navnet på stasjonen.

Klikk så for å se værobservasjoner og -varsler.

For å forandre kartet kan du klikke på den grønne knappen med svart kryss for å zoome inn, på den grønne knappen med strek for å zoome ut, eller på de grønne pilene for å se tilstøtende kart.


METAR-TAF: